< Typhoon 201207 2012 Season Typhoon 201209 >
Typhoon 201208 (VICENTE)
General InformationTrack Information on Google MapsDetailed Wind InformationAccess Analytics MapList of All Images || NewsDisaster Info.WeblogTrackbackTyphoon FrontTwiphoonTyphoon Now!Typhoon ImaginationResourceGoogle EarthGE AnimationAtom FeedGeoJSON
Detalied Best Track (Time Zone = UTC)
Year Month Day Hour Lat. Long. Pressure (hPa) Wind (kt) Class Image Chart
2012 7 18 12 15.0 128.6 1006 0 2 Image Chart
2012 7 18 18 15.0 127.6 1004 0 2 Image Chart
2012 7 19 00 15.1 126.9 1004 0 2 Image Chart
2012 7 19 06 15.3 126.2 1004 0 2 Image Chart
2012 7 19 12 15.5 125.6 1004 0 2 Image Chart
2012 7 19 18 15.8 124.9 1004 0 2 Image Chart
2012 7 20 00 16.2 124.3 1004 0 2 Image Chart
2012 7 20 06 17.1 123.4 1002 0 2 Image Chart
2012 7 20 12 18.5 122.7 1002 0 2 Image Chart
2012 7 20 18 19.0 120.5 1000 0 2 Image Chart
2012 7 21 00 18.7 118.6 1000 0 2 Image Chart
2012 7 21 06 18.7 117.6 998 0 2 Image Chart
2012 7 21 12 18.8 116.6 996 35 3 Image Chart
2012 7 21 18 18.8 115.7 992 40 3 Image Chart
2012 7 22 00 18.8 115.3 990 45 3 Image Chart
2012 7 22 06 18.7 115.1 990 45 3 Image Chart
2012 7 22 12 18.8 115.1 990 45 3 Image Chart
2012 7 22 18 19.2 115.3 985 50 4 Image Chart
2012 7 23 00 19.7 115.2 985 50 4 Image Chart
2012 7 23 06 20.5 114.8 975 60 4 Image Chart
2012 7 23 12 21.0 114.2 965 70 5 Image Chart
2012 7 23 18 21.7 113.4 950 80 5 Image Chart
2012 7 24 00 22.3 112.1 970 60 4 Image Chart
2012 7 24 06 23.0 110.5 985 50 4 Image Chart
2012 7 24 12 23.3 108.7 990 40 3 Image Chart
2012 7 24 18 23.1 107.1 994 0 2 Image Chart
2012 7 25 00 22.9 105.5 996 0 2 Image Chart
2012 7 25 06 22.6 104.3 996 0 2 Image Chart
Japan Meteorological Agency Best Track Data | Correction Date : 2012-08-28
< Typhoon 201207 2012 Season Typhoon 201209 >

Help